createdAt,value
2022-11-27T00:05:14.642Z,100.00
2022-11-27T00:15:36.180Z,100.00
2022-11-27T00:25:57.681Z,100.00
2022-11-27T00:36:19.158Z,100.00
2022-11-27T00:46:43.580Z,100.00
2022-11-27T00:57:05.343Z,100.00
2022-11-27T01:07:27.044Z,100.00
2022-11-27T01:17:48.584Z,100.00
2022-11-27T01:28:10.051Z,100.00
2022-11-27T01:38:32.103Z,100.00
2022-11-27T01:48:55.788Z,100.00
2022-11-27T01:59:18.457Z,100.00
2022-11-27T02:09:40.766Z,100.00
2022-11-27T02:20:03.212Z,100.00
2022-11-27T02:30:24.684Z,100.00
2022-11-27T02:40:59.568Z,100.00
2022-11-27T02:51:29.082Z,100.00
2022-11-27T03:01:57.952Z,100.00
2022-11-27T03:12:20.075Z,100.00
2022-11-27T03:22:41.604Z,100.00
2022-11-27T03:33:03.205Z,100.00
2022-11-27T03:43:29.730Z,100.00
2022-11-27T03:54:19.065Z,100.00
2022-11-27T04:04:40.907Z,100.00
2022-11-27T04:15:02.574Z,100.00
2022-11-27T04:25:24.424Z,100.00
2022-11-27T04:35:45.891Z,100.00
2022-11-27T04:46:07.391Z,100.00
2022-11-27T04:56:28.900Z,100.00
2022-11-27T05:06:50.516Z,100.00
2022-11-27T05:17:11.999Z,100.00
2022-11-27T05:27:33.614Z,100.00
2022-11-27T05:37:55.109Z,100.00
2022-11-27T05:48:16.571Z,100.00
2022-11-27T05:58:39.678Z,100.00
2022-11-27T06:09:01.146Z,100.00
2022-11-27T06:19:22.681Z,100.00
2022-11-27T06:29:44.197Z,100.00
2022-11-27T06:40:06.482Z,100.00
2022-11-27T06:50:27.968Z,100.00
2022-11-27T07:00:49.516Z,100.00
2022-11-27T07:11:14.484Z,100.00
2022-11-27T07:21:37.669Z,100.00
2022-11-27T07:31:59.188Z,100.00
2022-11-27T07:42:37.530Z,100.00
2022-11-27T07:52:59.715Z,100.00
2022-11-27T08:03:21.169Z,100.00
2022-11-27T08:13:42.750Z,100.00
2022-11-27T08:24:04.806Z,100.00
2022-11-27T08:34:26.863Z,100.00
2022-11-27T08:44:48.338Z,100.00
2022-11-27T08:55:09.875Z,100.00
2022-11-27T09:05:32.598Z,98.91
2022-11-27T09:15:56.858Z,99.29
2022-11-27T09:26:18.379Z,97.91
2022-11-27T09:36:39.970Z,96.74
2022-11-27T09:47:12.144Z,96.96
2022-11-27T09:57:37.686Z,95.17
2022-11-27T10:08:15.136Z,96.43
2022-11-27T10:18:42.656Z,95.04
2022-11-27T10:29:37.562Z,94.87
2022-11-27T10:40:02.686Z,94.20
2022-11-27T10:50:24.182Z,94.38
2022-11-27T11:00:45.775Z,94.33
2022-11-27T11:11:08.683Z,93.18
2022-11-27T11:32:16.706Z,92.78
2022-11-27T11:42:38.383Z,92.58
2022-11-27T11:53:14.968Z,92.24
2022-11-27T12:03:45.549Z,93.18
2022-11-27T12:14:18.334Z,92.81
2022-11-27T12:24:48.815Z,92.50
2022-11-27T12:35:44.573Z,95.18
2022-11-27T12:46:19.985Z,95.88
2022-11-27T12:56:48.425Z,97.93
2022-11-27T13:07:18.781Z,99.91
2022-11-27T13:17:43.058Z,100.00
2022-11-27T13:28:06.031Z,100.00
2022-11-27T13:38:27.881Z,100.00
2022-11-27T13:49:03.326Z,100.00
2022-11-27T13:59:25.635Z,100.00
2022-11-27T14:09:51.323Z,100.00
2022-11-27T14:20:16.143Z,100.00
2022-11-27T14:30:50.555Z,100.00
2022-11-27T14:41:18.114Z,100.00
2022-11-27T14:51:40.513Z,100.00
2022-11-27T15:02:11.458Z,100.00
2022-11-27T15:12:45.771Z,100.00
2022-11-27T15:23:21.625Z,100.00
2022-11-27T15:33:43.083Z,100.00
2022-11-27T15:44:04.672Z,100.00
2022-11-27T15:54:26.525Z,100.00
2022-11-27T16:04:48.037Z,100.00
2022-11-27T16:15:09.970Z,100.00
2022-11-27T16:25:31.434Z,100.00
2022-11-27T16:35:53.022Z,100.00
2022-11-27T16:46:17.934Z,100.00
2022-11-27T16:56:39.550Z,100.00
2022-11-27T17:07:01.157Z,100.00
2022-11-27T17:17:22.628Z,100.00
2022-11-27T17:27:44.092Z,100.00
2022-11-27T17:38:05.683Z,100.00
2022-11-27T17:48:28.044Z,100.00
2022-11-27T17:58:50.607Z,100.00
2022-11-27T18:09:12.435Z,100.00
2022-11-27T18:19:34.056Z,100.00
2022-11-27T18:29:55.549Z,100.00
2022-11-27T18:40:17.013Z,100.00
2022-11-27T18:50:38.475Z,100.00
2022-11-27T19:01:00.452Z,100.00
2022-11-27T19:11:23.346Z,74.25
2022-11-27T19:21:44.844Z,73.36
2022-11-27T19:32:06.360Z,72.33
2022-11-27T19:42:27.867Z,72.09
2022-11-27T19:52:49.392Z,72.55
2022-11-27T20:03:10.852Z,71.60
2022-11-27T20:13:32.640Z,72.38
2022-11-27T20:23:54.730Z,72.95
2022-11-27T20:34:21.769Z,72.77
2022-11-27T20:44:43.243Z,73.09
2022-11-27T20:55:05.262Z,72.50
2022-11-27T21:05:26.630Z,71.95
2022-11-27T21:15:48.415Z,72.11
2022-11-27T21:26:11.140Z,72.31
2022-11-27T21:36:36.191Z,72.78
2022-11-27T21:46:59.909Z,73.00
2022-11-27T21:57:21.666Z,73.38
2022-11-27T22:07:43.235Z,73.09
2022-11-27T22:18:04.785Z,73.40
2022-11-27T22:28:26.238Z,73.60
2022-11-27T22:38:50.483Z,73.70
2022-11-27T22:49:14.042Z,73.46
2022-11-27T22:59:35.586Z,74.15
2022-11-27T23:09:57.076Z,74.94
2022-11-27T23:20:18.593Z,75.02
2022-11-27T23:30:40.082Z,74.38
2022-11-27T23:41:27.969Z,74.18
2022-11-27T23:51:49.529Z,74.40
